Time;durP1;ratioP1;P1;durP2;ratioP2;P2;SDS_P1;SDS_P2;PMS_P1;PMS_P2;Temp;Humidity;BMP_temperature;BMP_pressure;BME280_temperature;BME280_humidity;BME280_pressure;Samples;Min_cycle;Max_cycle;Signal;HPM_P1;HPM_P2
2022/08/20 00:00:31;;;;;;;19.42;12.90;;;;;;;18.86;100.00;101550.22;5032008;28;20044;-79
2022/08/20 00:03:00;;;;;;;19.60;12.15;;;;;;;18.85;100.00;101543.34;5031824;28;20033;-73
2022/08/20 00:05:33;;;;;;;18.58;12.95;;;;;;;18.77;100.00;101527.47;5031866;28;20435;-80
2022/08/20 00:07:59;;;;;;;18.85;13.50;;;;;;;18.85;100.00;101543.34;5031947;28;20026;-76
2022/08/20 00:10:26;;;;;;;21.08;14.15;;;;;;;18.70;100.00;101521.13;5032189;28;20096;-78
2022/08/20 00:12:52;;;;;;;18.25;13.45;;;;;;;18.80;100.00;101533.28;5036006;28;20040;-78
2022/08/20 00:15:21;;;;;;;22.00;14.15;;;;;;;18.80;100.00;101535.06;5035885;28;20049;-76
2022/08/20 00:17:49;;;;;;;19.33;15.02;;;;;;;18.77;100.00;101540.53;5035727;28;20026;-73
2022/08/20 00:20:16;;;;;;;19.15;14.27;;;;;;;18.70;100.00;101527.19;5035686;28;20053;-79
2022/08/20 00:22:41;;;;;;;18.05;14.07;;;;;;;18.50;100.00;101496.66;5036259;28;20021;-75
2022/08/20 00:25:07;;;;;;;19.60;13.85;;;;;;;18.65;100.00;101528.53;5035741;28;20036;-74
2022/08/20 00:27:33;;;;;;;19.48;13.48;;;;;;;18.70;100.00;101531.59;5035296;28;20409;-74
2022/08/20 00:29:58;;;;;;;18.33;13.82;;;;;;;18.68;100.00;101536.09;5035522;28;20029;-74
2022/08/20 00:32:24;;;;;;;17.95;14.25;;;;;;;18.70;100.00;101529.81;5035379;28;20036;-79
2022/08/20 00:34:49;;;;;;;17.42;14.25;;;;;;;18.56;100.00;101517.84;5017323;28;20042;-74
2022/08/20 00:37:15;;;;;;;16.98;13.40;;;;;;;18.61;100.00;101515.69;5035425;28;20029;-75
2022/08/20 00:39:40;;;;;;;18.48;13.10;;;;;;;18.68;100.00;101523.03;5035489;28;20029;-71
2022/08/20 00:42:07;;;;;;;21.20;14.57;;;;;;;18.68;100.00;101526.50;5035369;28;20080;-79
2022/08/20 00:44:33;;;;;;;19.70;14.80;;;;;;;18.60;100.00;101523.66;5035290;28;20187;-79
2022/08/20 00:46:59;;;;;;;20.10;14.70;;;;;;;18.62;100.00;101527.81;5035145;28;20036;-80
2022/08/20 00:49:27;;;;;;;21.20;14.73;;;;;;;18.68;100.00;101530.88;5034714;28;20029;-77
2022/08/20 00:51:58;;;;;;;19.00;14.35;;;;;;;18.66;100.00;101530.19;5035351;28;20044;-74
2022/08/20 00:54:37;;;;;;;19.98;14.63;;;;;;;18.57;100.00;101516.06;5035135;28;20044;-78
2022/08/20 00:57:46;;;;;;;21.10;15.32;;;;;;;18.68;100.00;101525.63;5034990;28;20412;-80
2022/08/20 01:00:18;;;;;;;21.67;14.90;;;;;;;18.69;100.00;101527.31;4954653;29;20031;-80
2022/08/20 01:02:45;;;;;;;18.60;14.50;;;;;;;18.66;100.00;101514.47;4954650;29;20031;-80
2022/08/20 01:05:11;;;;;;;17.90;14.25;;;;;;;18.48;100.00;101491.53;4954397;29;20043;-80
2022/08/20 01:07:37;;;;;;;20.15;15.00;;;;;;;18.51;100.00;101493.91;4954615;29;20491;-77
2022/08/20 01:10:11;;;;;;;19.92;14.55;;;;;;;18.65;100.00;101520.69;4954702;29;20031;-81
2022/08/20 01:12:39;;;;;;;20.10;14.65;;;;;;;18.73;100.00;101526.09;4954444;29;20071;-79
2022/08/20 01:15:10;;;;;;;18.98;14.18;;;;;;;18.71;100.00;101526.22;4954190;29;20066;-80
2022/08/20 01:17:45;;;;;;;20.08;14.75;;;;;;;18.72;100.00;101517.41;4954187;28;20051;-75
2022/08/20 01:20:20;;;;;;;20.17;15.07;;;;;;;18.63;100.00;101507.69;4954294;29;20027;-79
2022/08/20 01:25:53;;;;;;;22.10;16.63;;;;;;;18.66;100.00;101519.72;4954719;29;20075;-79
2022/08/20 01:28:24;;;;;;;22.65;15.68;;;;;;;18.70;100.00;101531.59;4954442;29;20031;-79
2022/08/20 01:30:49;;;;;;;24.75;15.82;;;;;;;18.68;100.00;101534.34;4983825;28;20029;-79
2022/08/20 01:33:16;;;;;;;21.92;15.88;;;;;;;18.61;100.00;101518.31;5014705;28;20358;-78
2022/08/20 01:35:43;;;;;;;20.02;15.52;;;;;;;18.68;100.00;101536.97;5014288;28;20084;-75
2022/08/20 01:38:09;;;;;;;23.75;15.93;;;;;;;18.65;100.00;101528.53;5014559;28;20474;-79
2022/08/20 01:40:58;;;;;;;20.30;15.63;;;;;;;18.72;100.00;101537.50;5014662;28;20022;-77
2022/08/20 01:43:24;;;;;;;21.55;16.15;;;;;;;18.66;100.00;101527.56;5014262;28;20025;-79
2022/08/20 01:45:51;;;;;;;19.38;14.43;;;;;;;18.62;100.00;101516.50;5014297;28;20026;-73
2022/08/20 01:48:18;;;;;;;22.75;15.73;;;;;;;18.68;100.00;101533.47;5014666;28;20026;-77
2022/08/20 01:50:52;;;;;;;19.77;15.20;;;;;;;18.61;100.00;101518.31;5014216;28;20030;-75
2022/08/20 01:53:25;;;;;;;22.05;15.13;;;;;;;18.68;100.00;101528.25;5014440;28;20355;-78
2022/08/20 01:55:51;;;;;;;20.98;14.50;;;;;;;18.59;100.00;101517.63;5014303;28;20034;-80
2022/08/20 01:58:16;;;;;;;20.02;15.23;;;;;;;18.66;100.00;101528.38;5013919;28;20173;-76
2022/08/20 02:00:42;;;;;;;20.58;15.75;;;;;;;18.60;100.00;101528.91;5013997;28;20029;-78
2022/08/20 02:03:08;;;;;;;19.52;15.82;;;;;;;18.60;100.00;101534.97;5014371;28;20436;-80
2022/08/20 02:05:34;;;;;;;19.42;15.52;;;;;;;18.53;100.00;101519.91;5013943;28;20034;-80
2022/08/20 02:08:00;;;;;;;21.08;15.95;;;;;;;18.59;100.00;101535.09;5013984;28;20438;-80
2022/08/20 02:10:27;;;;;;;21.98;17.00;;;;;;;18.57;100.00;101535.19;5014179;28;20026;-79
2022/08/20 02:12:53;;;;;;;19.92;16.13;;;;;;;18.47;100.00;101523.03;5012432;28;20026;-80
2022/08/20 02:15:19;;;;;;;22.92;15.75;;;;;;;18.58;100.00;101541.25;5032648;28;20054;-77
2022/08/20 02:17:44;;;;;;;21.20;15.98;;;;;;;18.57;100.00;101537.00;5033588;28;20103;-80
2022/08/20 02:20:16;;;;;;;21.77;17.40;;;;;;;18.54;100.00;101530.25;5033484;28;20428;-80
2022/08/20 02:22:41;;;;;;;20.83;16.77;;;;;;;18.56;100.00;101536.16;5033494;28;20087;-80
2022/08/20 02:25:08;;;;;;;21.02;16.52;;;;;;;18.54;100.00;101537.25;5033152;28;20112;-80
2022/08/20 02:27:36;;;;;;;22.35;16.75;;;;;;;18.46;100.00;101537.09;5033299;28;20128;-81
2022/08/20 02:30:09;;;;;;;22.70;16.75;;;;;;;18.39;100.00;101528.94;5033380;28;20138;-80
2022/08/20 02:32:35;;;;;;;22.92;17.60;;;;;;;18.35;100.00;101523.13;5033463;28;20044;-80
2022/08/20 02:35:02;;;;;;;24.73;18.88;;;;;;;18.32;100.00;101525.19;5032517;28;20108;-81
2022/08/20 02:37:28;;;;;;;27.08;18.42;;;;;;;18.28;100.00;101524.59;5015552;28;20397;-80
2022/08/20 02:39:53;;;;;;;26.02;18.45;;;;;;;18.28;100.00;101532.44;5032989;28;20033;-80
2022/08/20 02:42:19;;;;;;;29.65;19.20;;;;;;;18.31;100.00;101534.00;5032976;28;20080;-77
2022/08/20 02:44:45;;;;;;;27.80;18.65;;;;;;;18.33;100.00;101539.91;5032942;28;20026;-80
2022/08/20 02:47:10;;;;;;;26.77;19.75;;;;;;;18.37;100.00;101545.69;5033095;28;20028;-81
2022/08/20 02:49:35;;;;;;;29.33;19.83;;;;;;;18.38;100.00;101539.50;5032965;28;20500;-80
2022/08/20 02:52:01;;;;;;;26.58;19.00;;;;;;;18.42;100.00;101548.78;5032832;28;20524;-80
2022/08/20 02:54:28;;;;;;;26.60;19.15;;;;;;;18.44;100.00;101544.22;5032716;28;20126;-80
2022/08/20 02:56:53;;;;;;;25.42;19.17;;;;;;;18.47;100.00;101543.97;5032843;28;20104;-78
2022/08/20 02:59:18;;;;;;;26.35;19.73;;;;;;;18.42;100.00;101533.09;5032888;28;20109;-79
2022/08/20 03:01:43;;;;;;;28.27;20.75;;;;;;;18.46;100.00;101542.31;5032655;28;20026;-80
2022/08/20 03:04:09;;;;;;;31.27;20.35;;;;;;;18.41;100.00;101532.25;5032972;28;20052;-80
2022/08/20 03:06:34;;;;;;;27.83;20.63;;;;;;;18.42;100.00;101544.38;5032602;28;20029;-80
2022/08/20 03:09:01;;;;;;;31.05;20.75;;;;;;;18.42;100.00;101540.94;5032582;28;20485;-81
2022/08/20 03:11:26;;;;;;;30.27;20.55;;;;;;;18.33;100.00;101530.28;5032624;28;20385;-81
2022/08/20 03:13:52;;;;;;;28.95;20.80;;;;;;;18.19;100.00;101503.63;5032472;28;20057;-80
2022/08/20 03:16:17;;;;;;;34.58;21.65;;;;;;;18.30;100.00;101521.88;5014750;28;20049;-80
2022/08/20 03:18:45;;;;;;;37.33;22.75;;;;;;;18.36;100.00;101531.81;5032464;28;20074;-80
2022/08/20 03:21:11;;;;;;;35.00;22.45;;;;;;;18.30;100.00;101525.31;5032367;28;20037;-79
2022/08/20 03:23:38;;;;;;;36.50;23.20;;;;;;;18.32;100.00;101536.47;5032448;28;20633;-79
2022/08/20 03:26:08;;;;;;;42.20;23.67;;;;;;;18.31;100.00;101539.22;5032450;28;20027;-79
2022/08/20 03:28:34;;;;;;;36.40;23.90;;;;;;;18.35;100.00;101541.44;5032956;28;20060;-79
2022/08/20 03:31:00;;;;;;;37.95;24.15;;;;;;;18.24;100.00;101525.00;5032330;28;20049;-79
2022/08/20 03:33:27;;;;;;;36.28;24.40;;;;;;;18.21;100.00;101533.94;5032429;28;20034;-78
2022/08/20 03:35:53;;;;;;;43.45;25.58;;;;;;;18.31;100.00;101553.13;5032232;28;20389;-74
2022/08/20 03:38:22;;;;;;;43.03;27.05;;;;;;;18.30;100.00;101551.47;5032363;28;20063;-79
2022/08/20 03:40:48;;;;;;;42.50;26.95;;;;;;;18.28;100.00;101547.31;5032507;28;20033;-80
2022/08/20 03:43:14;;;;;;;44.90;26.45;;;;;;;18.30;100.00;101556.69;5032261;28;20092;-77
2022/08/20 03:45:42;;;;;;;38.78;27.55;;;;;;;18.30;100.00;101559.31;5034426;28;20179;-76
2022/08/20 03:48:16;;;;;;;52.67;29.23;;;;;;;18.27;100.00;101556.09;5036421;28;20100;-77
2022/08/20 03:50:42;;;;;;;42.10;28.77;;;;;;;18.28;100.00;101561.19;5036282;28;20052;-81
2022/08/20 03:53:09;;;;;;;40.83;28.52;;;;;;;18.25;100.00;101558.84;5036060;28;20021;-79
2022/08/20 03:55:35;;;;;;;45.20;29.23;;;;;;;18.27;100.00;101561.34;5036070;28;20021;-80
2022/08/20 03:58:05;;;;;;;44.63;28.83;;;;;;;18.24;100.00;101559.00;5036281;28;20159;-79
2022/08/20 04:00:50;;;;;;;53.75;31.00;;;;;;;18.19;100.00;101553.31;5035918;28;20030;-80
2022/08/20 04:03:16;;;;;;;49.47;30.35;;;;;;;18.15;100.00;101546.69;5036166;28;20036;-75
2022/08/20 04:05:42;;;;;;;51.78;32.22;;;;;;;18.18;100.00;101551.66;5036033;28;20393;-76
2022/08/20 04:08:20;;;;;;;47.22;31.65;;;;;;;18.20;100.00;101553.19;5035796;28;20029;-79
2022/08/20 04:10:47;;;;;;;50.15;31.73;;;;;;;18.15;100.00;101560.56;5036032;28;20025;-78
2022/08/20 04:13:14;;;;;;;50.47;31.88;;;;;;;18.14;100.00;101563.31;5035928;28;20033;-79
2022/08/20 04:15:41;;;;;;;54.60;34.33;;;;;;;18.09;100.00;101555.84;5035903;28;20624;-77
2022/08/20 04:18:09;;;;;;;54.58;33.53;;;;;;;18.10;100.00;101570.59;5035635;28;20026;-79
2022/08/20 04:20:37;;;;;;;54.67;34.33;;;;;;;18.03;100.00;101559.00;5035892;28;20040;-77
2022/08/20 04:23:03;;;;;;;55.13;33.05;;;;;;;18.04;100.00;101565.88;5017676;28;20022;-80
2022/08/20 04:25:30;;;;;;;56.70;34.45;;;;;;;18.01;100.00;101568.75;5035750;28;20025;-81
2022/08/20 04:27:57;;;;;;;56.30;35.30;;;;;;;17.95;100.00;101567.47;5035673;28;20029;-79
2022/08/20 04:30:24;;;;;;;55.22;34.97;;;;;;;17.97;100.00;101569.94;5035584;28;20063;-77
2022/08/20 04:32:50;;;;;;;59.58;35.60;;;;;;;17.98;100.00;101575.03;5035490;28;20143;-80
2022/08/20 04:35:17;;;;;;;49.00;33.35;;;;;;;17.89;100.00;101562.72;5035533;28;20108;-79
2022/08/20 04:37:46;;;;;;;59.90;36.28;;;;;;;17.87;100.00;101567.25;5017718;28;20041;-79
2022/08/20 04:43:03;;;;;;;61.45;36.55;;;;;;;17.84;100.00;101570.13;5035619;28;20120;-80
2022/08/20 04:45:30;;;;;;;55.58;35.67;;;;;;;17.89;100.00;101593.25;5035268;28;20031;-80
2022/08/20 04:47:56;;;;;;;63.97;37.53;;;;;;;17.88;100.00;101594.22;5035337;28;20096;-77
2022/08/20 04:50:22;;;;;;;61.10;37.55;;;;;;;17.75;100.00;101578.72;5035288;28;20056;-79
2022/08/20 04:52:48;;;;;;;65.03;37.75;;;;;;;17.85;100.00;101600.53;5035190;28;20022;-76
2022/08/20 04:55:16;;;;;;;58.03;37.28;;;;;;;17.86;100.00;101596.94;5035064;28;20435;-78
2022/08/20 04:57:42;;;;;;;71.25;38.03;;;;;;;17.85;100.00;101599.69;5034406;28;20553;-77
2022/08/20 05:00:13;;;;;;;61.83;37.90;;;;;;;17.86;100.00;101603.97;5034811;28;20061;-76
2022/08/20 05:02:38;;;;;;;59.97;38.95;;;;;;;17.76;100.00;101596.03;5034990;28;20080;-79
2022/08/20 05:05:08;;;;;;;62.85;38.15;;;;;;;17.85;100.00;101613.59;5034910;28;20029;-77
2022/08/20 05:07:47;;;;;;;63.17;38.58;;;;;;;17.86;100.00;101612.63;5034603;28;20366;-80
2022/08/20 05:10:16;;;;;;;63.75;37.83;;;;;;;17.83;100.00;101612.88;5035041;28;20043;-79
2022/08/20 05:12:41;;;;;;;65.05;39.33;;;;;;;17.70;100.00;101604.41;5034780;28;20396;-76
2022/08/20 05:15:10;;;;;;;60.55;38.47;;;;;;;17.74;100.00;101616.25;5034534;28;20041;-81
2022/08/20 05:17:37;;;;;;;65.13;38.83;;;;;;;17.66;100.00;101606.38;5035086;28;20041;-80
2022/08/20 05:20:05;;;;;;;65.15;39.78;;;;;;;17.63;100.00;101595.34;5034790;28;20014;-86
2022/08/20 05:22:30;;;;;;;60.38;37.17;;;;;;;17.61;100.00;101605.94;5016591;28;20034;-86
2022/08/20 05:24:58;;;;;;;59.50;37.95;;;;;;;17.71;100.00;101624.34;5034693;28;20017;-87
2022/08/20 05:27:25;;;;;;;66.07;37.60;;;;;;;17.72;100.00;101615.53;5034625;28;20056;-84
2022/08/20 05:30:05;;;;;;;67.30;36.97;;;;;;;17.71;100.00;101619.13;5034488;28;20469;-77
2022/08/20 05:32:32;;;;;;;58.80;34.83;;;;;;;17.69;100.00;101621.81;5034793;28;20026;-84
2022/08/20 05:34:57;;;;;;;54.75;35.20;;;;;;;17.70;100.00;101620.91;5034552;28;20068;-86
2022/08/20 05:37:23;;;;;;;57.42;35.25;;;;;;;17.68;100.00;101625.34;5034657;28;20064;-82
2022/08/20 05:39:48;;;;;;;56.58;34.28;;;;;;;17.73;100.00;101630.25;5034648;28;20037;-85
2022/08/20 05:42:13;;;;;;;60.15;36.53;;;;;;;17.75;100.00;101628.34;5034160;28;20454;-85
2022/08/20 05:44:39;;;;;;;58.03;34.05;;;;;;;17.75;100.00;101630.97;5034496;28;20454;-81
2022/08/20 05:47:05;;;;;;;55.58;34.78;;;;;;;17.83;100.00;101633.78;5034236;28;20095;-81
2022/08/20 05:49:30;;;;;;;58.90;35.88;;;;;;;17.80;100.00;101623.59;5034236;28;20033;-87
2022/08/20 05:51:56;;;;;;;62.75;35.92;;;;;;;17.74;100.00;101611.84;5034161;28;20087;-83
2022/08/20 05:54:22;;;;;;;54.15;34.30;;;;;;;17.90;100.00;101640.19;5033838;28;20477;-81
2022/08/20 05:56:48;;;;;;;53.67;34.25;;;;;;;17.91;100.00;101614.88;5034134;28;20116;-85
2022/08/20 05:59:13;;;;;;;57.80;35.63;;;;;;;17.93;100.00;101620.81;5034322;28;20117;-81
2022/08/20 06:01:40;;;;;;;54.33;33.75;;;;;;;18.14;100.00;101641.75;5033977;28;20037;-84
2022/08/20 06:04:26;;;;;;;59.33;34.88;;;;;;;18.30;100.00;101636.94;5034075;28;20026;-80
2022/08/20 06:06:55;;;;;;;56.22;33.38;;;;;;;18.43;100.00;101637.56;5034103;28;20029;-79
2022/08/20 06:09:23;;;;;;;51.00;32.25;;;;;;;18.57;100.00;101620.69;5032914;28;20083;-80
2022/08/20 06:11:49;;;;;;;49.83;33.75;;;;;;;18.66;100.00;101634.81;5033791;28;20064;-84
2022/08/20 06:14:15;;;;;;;46.78;31.77;;;;;;;18.74;100.00;101650.72;5033844;28;20065;-80
2022/08/20 06:16:41;;;;;;;46.55;32.20;;;;;;;18.62;100.00;101642.09;5016007;28;20053;-86
2022/08/20 06:19:06;;;;;;;47.13;30.85;;;;;;;18.59;100.00;101643.19;5033624;28;20033;-87
2022/08/20 06:21:32;;;;;;;55.72;33.38;;;;;;;18.55;100.00;101636.53;5033692;28;20061;-79
2022/08/20 06:23:57;;;;;;;52.92;32.20;;;;;;;18.66;100.00;101653.13;5033571;28;20108;-76
2022/08/20 06:26:23;;;;;;;52.35;31.77;;;;;;;18.75;100.00;101647.13;5033779;28;20457;-78
2022/08/20 06:28:48;;;;;;;53.35;31.77;;;;;;;18.89;100.00;101637.16;5033706;28;20025;-84
2022/08/20 06:31:13;;;;;;;48.75;31.67;;;;;;;19.19;100.00;101636.31;5033404;28;20464;-87
2022/08/20 06:33:39;;;;;;;48.28;30.67;;;;;;;19.42;100.00;101643.97;5033481;28;20038;-82
2022/08/20 06:36:05;;;;;;;54.22;30.83;;;;;;;19.53;99.99;101645.63;5033454;28;20082;-78
2022/08/20 06:38:31;;;;;;;48.17;29.55;;;;;;;19.56;98.59;101650.63;5033099;28;20113;-86
2022/08/20 06:40:57;;;;;;;44.72;29.90;;;;;;;19.58;99.02;101648.72;5033482;28;20101;-78
2022/08/20 06:43:22;;;;;;;48.67;31.13;;;;;;;19.55;98.62;101652.38;5033465;28;20550;-76
2022/08/20 06:45:47;;;;;;;44.80;30.20;;;;;;;19.32;98.62;101630.84;5033522;28;20480;-82
2022/08/20 06:48:13;;;;;;;53.72;31.85;;;;;;;19.44;99.50;101650.72;5033408;28;20026;-78
2022/08/20 06:50:41;;;;;;;44.58;31.10;;;;;;;19.40;99.86;101662.44;5032898;28;20028;-75
2022/08/20 06:53:12;;;;;;;47.78;29.35;;;;;;;19.39;99.19;101655.53;5015356;28;20393;-77
2022/08/20 06:55:42;;;;;;;48.42;29.90;;;;;;;19.35;99.65;101654.13;5033065;28;20021;-77
2022/08/20 06:58:10;;;;;;;45.78;30.30;;;;;;;19.38;99.50;101656.50;5033032;28;20025;-77
2022/08/20 07:00:37;;;;;;;44.33;28.48;;;;;;;19.35;98.85;101666.41;5033028;28;20071;-83
2022/08/20 07:03:03;;;;;;;46.50;28.10;;;;;;;19.22;99.83;101640.47;5032896;28;20032;-83
2022/08/20 07:05:32;;;;;;;38.63;26.17;;;;;;;19.28;98.83;101665.28;5032951;28;20148;-80
2022/08/20 07:07:59;;;;;;;45.17;27.77;;;;;;;19.34;98.41;101670.00;5032867;28;20096;-82
2022/08/20 07:10:25;;;;;;;47.30;29.20;;;;;;;19.47;99.01;101657.50;5032799;28;20025;-76
2022/08/20 07:12:51;;;;;;;41.83;28.67;;;;;;;19.70;97.87;101669.44;5032890;28;20025;-82
2022/08/20 07:15:19;;;;;;;44.05;29.13;;;;;;;20.03;96.44;101657.72;5014933;28;20392;-79
2022/08/20 07:17:53;;;;;;;42.83;25.23;;;;;;;20.40;93.72;101653.56;5033372;28;20065;-77
2022/08/20 07:20:19;;;;;;;36.47;24.45;;;;;;;20.70;91.28;101665.69;5032658;28;20029;-80
2022/08/20 07:22:44;;;;;;;33.30;22.45;;;;;;;21.01;89.49;101674.16;5032717;28;20048;-78
2022/08/20 07:25:13;;;;;;;22.80;14.63;;;;;;;21.39;86.92;101660.06;5032606;28;20040;-81
2022/08/20 07:27:39;;;;;;;29.80;18.13;;;;;;;21.85;83.58;101677.50;5031865;28;20091;-74
2022/08/20 07:32:51;;;;;;;21.88;13.88;;;;;;;21.87;82.73;101680.78;5032847;28;20036;-86
2022/08/20 07:35:18;;;;;;;22.27;14.63;;;;;;;21.90;82.29;101688.38;5032182;28;20030;-76
2022/08/20 07:37:47;;;;;;;29.75;18.23;;;;;;;21.83;83.26;101691.75;5032744;28;20029;-79
2022/08/20 07:40:23;;;;;;;21.20;15.35;;;;;;;22.09;83.15;101687.44;5032238;28;20419;-81
2022/08/20 07:42:49;;;;;;;30.35;18.52;;;;;;;22.22;81.34;101697.56;5033537;28;20053;-77
2022/08/20 07:45:17;;;;;;;28.50;17.27;;;;;;;22.47;80.53;101695.97;5032765;28;20025;-77
2022/08/20 07:47:42;;;;;;;21.02;15.13;;;;;;;22.64;78.64;101699.56;5032277;28;20428;-82
2022/08/20 07:50:10;;;;;;;23.65;16.20;;;;;;;22.51;78.83;101692.03;5033025;28;20026;-82
2022/08/20 07:52:36;;;;;;;23.67;15.23;;;;;;;22.42;78.66;101698.22;5032902;28;20045;-76
2022/08/20 07:55:07;;;;;;;26.95;15.35;;;;;;;22.13;78.47;101698.50;5032334;28;20029;-78
2022/08/20 07:57:32;;;;;;;22.27;15.98;;;;;;;21.72;79.19;101713.81;5031326;28;20034;-83
2022/08/20 07:59:58;;;;;;;22.05;13.90;;;;;;;21.46;80.80;101705.81;5032476;28;20155;-78
2022/08/20 08:02:25;;;;;;;25.38;15.95;;;;;;;21.23;81.37;101712.38;5032222;28;20045;-80
2022/08/20 08:04:50;;;;;;;25.02;16.52;;;;;;;21.26;81.21;101705.06;5032406;28;20384;-78
2022/08/20 08:07:16;;;;;;;27.30;16.45;;;;;;;21.67;82.30;101719.53;5032258;28;20026;-85
2022/08/20 08:09:43;;;;;;;29.55;17.08;;;;;;;22.25;81.79;101719.16;5032212;28;20030;-80
2022/08/20 08:12:12;;;;;;;23.15;15.40;;;;;;;22.27;77.98;101717.19;5032202;28;20036;-81
2022/08/20 08:14:40;;;;;;;21.33;14.57;;;;;;;22.30;78.76;101723.94;5032032;28;20052;-84
2022/08/20 08:17:06;;;;;;;21.80;15.02;;;;;;;21.97;77.75;101713.09;5032095;28;20022;-89
2022/08/20 08:19:41;;;;;;;18.08;12.32;;;;;;;21.90;77.15;101719.94;5032151;28;20028;-85
2022/08/20 08:22:12;;;;;;;19.20;13.52;;;;;;;21.55;76.89;101720.72;5031966;28;20078;-83
2022/08/20 08:24:38;;;;;;;;;;;;;;;21.68;80.80;101730.88;5032502;28;20025;-79
2022/08/20 08:27:03;;;;;;;23.13;14.48;;;;;;;21.42;80.45;101728.91;5031682;28;20373;-77
2022/08/20 08:29:29;;;;;;;21.83;13.75;;;;;;;21.67;80.03;101729.22;5031836;28;20087;-76
2022/08/20 08:31:55;;;;;;;20.00;13.30;;;;;;;21.72;77.34;101721.69;5032902;28;20055;-76
2022/08/20 08:34:23;;;;;;;19.40;14.52;;;;;;;21.82;79.24;101730.34;5035783;28;20030;-75
2022/08/20 08:36:49;;;;;;;21.55;13.88;;;;;;;21.76;79.87;101720.44;5035736;28;20366;-76
2022/08/20 08:39:15;;;;;;;19.27;11.93;;;;;;;21.90;80.80;101730.44;5035533;28;20029;-76
2022/08/20 08:41:48;;;;;;;16.20;11.77;;;;;;;21.82;78.03;101726.91;5035345;28;20026;-76
2022/08/20 08:44:20;;;;;;;17.55;11.05;;;;;;;21.88;79.30;101737.66;5035337;28;20473;-76
2022/08/20 08:46:48;;;;;;;17.77;10.90;;;;;;;21.78;77.84;101718.50;5035385;28;20029;-75
2022/08/20 08:49:16;;;;;;;17.65;12.60;;;;;;;21.68;78.54;101736.13;5035356;28;20469;-75
2022/08/20 08:51:47;;;;;;;19.45;12.80;;;;;;;21.72;78.43;101740.94;5035294;28;20469;-77
2022/08/20 08:54:18;;;;;;;17.70;12.05;;;;;;;21.87;77.62;101738.63;5035264;28;20389;-77
2022/08/20 08:56:44;;;;;;;20.02;14.40;;;;;;;21.96;77.75;101747.44;5035033;28;20030;-77
2022/08/20 08:59:09;;;;;;;18.63;13.45;;;;;;;22.24;76.60;101745.63;5034952;28;20099;-77
2022/08/20 09:01:45;;;;;;;20.00;11.95;;;;;;;22.41;75.83;101734.25;5035145;28;20101;-78
2022/08/20 09:04:12;;;;;;;19.63;11.82;;;;;;;22.42;72.82;101746.44;5035169;28;20049;-77
2022/08/20 09:06:39;;;;;;;19.55;12.25;;;;;;;22.21;71.81;101751.16;5034973;28;20116;-77
2022/08/20 09:09:06;;;;;;;24.65;13.38;;;;;;;22.00;73.35;101733.84;5034883;28;20026;-75
2022/08/20 09:11:45;;;;;;;21.23;12.48;;;;;;;22.19;76.87;101753.94;5034823;28;20026;-76
2022/08/20 09:14:10;;;;;;;21.63;12.88;;;;;;;22.08;76.16;101727.88;5034765;28;20123;-76
2022/08/20 09:16:35;;;;;;;23.45;14.52;;;;;;;22.18;75.21;101748.84;5034678;28;20060;-76
2022/08/20 09:19:01;;;;;;;17.95;11.25;;;;;;;22.18;73.48;101756.75;5034866;28;20052;-72
2022/08/20 09:21:26;;;;;;;20.60;11.90;;;;;;;22.01;73.29;101756.53;5034829;28;20071;-74
2022/08/20 09:23:51;;;;;;;16.88;11.38;;;;;;;21.75;72.08;101738.03;5034623;28;20028;-76
2022/08/20 09:26:17;;;;;;;19.45;10.18;;;;;;;21.90;72.87;101738.34;5034154;28;20712;-77
2022/08/20 09:28:42;;;;;;;17.55;12.15;;;;;;;21.88;71.47;101732.41;5034621;28;20032;-76
2022/08/20 09:31:07;;;;;;;17.13;9.77;;;;;;;22.11;72.22;101748.59;5034498;28;20158;-78
2022/08/20 09:33:33;;;;;;;19.27;11.27;;;;;;;22.13;74.26;101735.31;5034568;28;20143;-76
2022/08/20 09:35:58;;;;;;;15.40;10.48;;;;;;;21.98;69.39;101724.44;5034449;28;20021;-76
2022/08/20 09:38:24;;;;;;;16.77;8.98;;;;;;;22.07;70.20;101749.88;5033505;28;20374;-74
2022/08/20 09:40:49;;;;;;;19.20;10.23;;;;;;;22.10;72.99;101740.88;5034814;28;20032;-73
2022/08/20 09:43:14;;;;;;;18.88;10.57;;;;;;;22.29;73.73;101740.72;5034111;28;20227;-76
2022/08/20 09:45:40;;;;;;;23.50;12.20;;;;;;;22.17;72.81;101726.16;5034056;28;20083;-77
2022/08/20 09:48:05;;;;;;;21.55;11.65;;;;;;;22.29;73.80;101723.13;5034305;28;20017;-75
2022/08/20 09:50:33;;;;;;;15.73;9.98;;;;;;;22.44;71.53;101733.97;5034261;28;20547;-75
2022/08/20 09:53:00;;;;;;;21.00;11.48;;;;;;;22.20;68.16;101720.56;5034138;28;20029;-76
2022/08/20 09:55:31;;;;;;;20.90;10.85;;;;;;;22.38;67.41;101736.34;5033820;28;20527;-75
2022/08/20 09:57:57;;;;;;;;;;;;;;;22.57;70.93;101742.28;5034471;28;20029;-76
2022/08/20 10:00:23;;;;;;;18.20;10.18;;;;;;;22.77;69.31;101728.94;5016333;28;19916;-75
2022/08/20 10:02:49;;;;;;;17.27;10.52;;;;;;;23.05;65.73;101741.00;5032892;28;20350;-73
2022/08/20 10:05:14;;;;;;;18.05;8.60;;;;;;;23.46;66.68;101741.19;5034509;28;20468;-75
2022/08/20 10:07:40;;;;;;;18.23;9.88;;;;;;;23.50;62.86;101703.00;5033782;28;20036;-75
2022/08/20 10:10:08;;;;;;;16.25;7.43;;;;;;;23.91;64.96;101721.59;5033214;28;20031;-74
2022/08/20 10:12:34;;;;;;;17.35;7.45;;;;;;;23.88;61.07;101727.19;5033699;28;20104;-74
2022/08/20 10:14:59;;;;;;;12.63;6.25;;;;;;;23.91;61.51;101740.88;5033446;28;20462;-74
2022/08/20 10:17:24;;;;;;;12.57;5.18;;;;;;;23.75;58.64;101744.31;5033949;28;20090;-75
2022/08/20 10:19:50;;;;;;;12.07;4.93;;;;;;;23.61;58.06;101731.75;5033624;28;20025;-75
2022/08/20 10:22:15;;;;;;;9.35;3.50;;;;;;;23.56;56.95;101727.88;5033283;28;20431;-73
2022/08/20 10:24:41;;;;;;;14.25;4.32;;;;;;;23.68;57.04;101738.00;5033365;28;20033;-75
2022/08/20 10:27:06;;;;;;;14.93;4.05;;;;;;;23.71;57.45;101739.53;5033426;28;20037;-74
2022/08/20 10:29:32;;;;;;;11.98;4.50;;;;;;;23.80;58.78;101735.09;5033092;28;20048;-75
2022/08/20 10:32:08;;;;;;;15.95;4.18;;;;;;;23.73;58.14;101716.44;5033257;28;20026;-76
2022/08/20 10:34:33;;;;;;;9.95;3.85;;;;;;;23.93;54.76;101744.19;5033185;28;20049;-74
2022/08/20 10:36:58;;;;;;;10.48;3.50;;;;;;;24.07;53.73;101739.25;5032948;28;20432;-75
2022/08/20 10:39:24;;;;;;;10.82;3.45;;;;;;;24.26;54.87;101739.78;5033169;28;20055;-77
2022/08/20 10:41:49;;;;;;;10.35;3.88;;;;;;;24.39;53.52;101741.16;5033267;28;20091;-77
2022/08/20 10:44:16;;;;;;;10.57;3.47;;;;;;;24.35;52.96;101740.63;5032924;28;20131;-76
2022/08/20 10:46:41;;;;;;;8.75;3.03;;;;;;;24.27;51.79;101745.88;5032997;28;20396;-77
2022/08/20 10:49:07;;;;;;;12.45;3.58;;;;;;;24.39;53.57;101727.94;5033078;28;20029;-77
2022/08/20 10:51:32;;;;;;;13.07;3.65;;;;;;;24.65;50.88;101747.06;5032884;28;20026;-76
2022/08/20 10:53:58;;;;;;;11.60;3.83;;;;;;;24.81;51.68;101749.69;5032771;28;20457;-76
2022/08/20 10:56:23;;;;;;;11.65;4.00;;;;;;;24.97;53.75;101729.50;5032669;28;20421;-76
2022/08/20 10:58:48;;;;;;;14.45;4.10;;;;;;;25.09;50.60;101728.22;5032853;28;20025;-76
2022/08/20 11:01:14;;;;;;;14.13;3.95;;;;;;;25.08;48.76;101727.38;5032848;28;20021;-76
2022/08/20 11:03:39;;;;;;;9.57;3.90;;;;;;;25.22;52.37;101743.53;5015091;28;20133;-77
2022/08/20 11:06:04;;;;;;;12.15;3.60;;;;;;;24.94;50.12;101741.25;5032604;28;20105;-75
2022/08/20 11:08:30;;;;;;;8.48;3.42;;;;;;;24.98;49.34;101747.84;5032813;28;20030;-75
2022/08/20 11:10:56;;;;;;;10.45;3.80;;;;;;;25.02;52.76;101724.59;5032745;28;20047;-76
2022/08/20 11:13:21;;;;;;;12.48;3.85;;;;;;;25.19;49.75;101738.59;5032855;28;20116;-76
2022/08/20 11:15:47;;;;;;;9.57;3.40;;;;;;;25.12;48.88;101727.84;5032670;28;20073;-75